Aérodrome :
LOGIN :

S'inscrire | Disclaimer

   EN    FR    IT 

 










Légende :    VFR   VFR Marginal   IFR   IFR Intensif   IFR Très Intensif
Visi : 
Plafond : 
>= 8 km
>= 3000ft
5 à 8 km
1000 à 3000 ft
1500m à 5 km
500 à 1000 ft
800 à 1500m
200 à 500 ft
< 800m
< 200 ft
Symboles :   Orages  Brouillard  Fortes neiges  Fortes précipitations  Vent > 20 kt
SIGMETs :   Divers  Orages  Givrage  Turbulence  Onde Orograph.  Cendres Volcan.






- Altitude de l'aérodrome : 100 ft


EBDT - Schaffen

DERNIER METAR :
  • 211255Z AUTO 03011KT 9999 SCT043/// BKN053/// 09/M00 Q1024 BLU

METARs EXPIRÉS :
  • 211225Z AUTO 06009G20KT 9999 FEW045/// 09/M02 Q1024 BLU
  • 211155Z AUTO 04012KT 9999 BKN038/// 09/00 Q1024 BLU
  • 211125Z AUTO 08009KT 9999 BKN036/// 09/00 Q1024 BLU
  • 211055Z AUTO 04012KT 9999 BKN034/// 07/01 Q1024 BLU
  • 211025Z AUTO 04012KT 9999 BKN030/// 08/01 Q1024 BLU
  • 210955Z AUTO 05012KT 9999 BKN026/// 07/00 Q1023 BLU
  • 210855Z AUTO 04011KT 9999 OVC020/// 05/01 Q1023 WHT
  • 210925Z AUTO 04009KT 9999 BKN021/// 07/01 Q1023 WHT
  • 210825Z AUTO 03013KT 9999 OVC020/// 05/01 Q1022 WHT

Prévision TAF périmée.



MET'MAP, la Météo Aéronautique d'un coup d'oeil ! - Copyright ORBIFLY Décembre 2007 - Disclaimer

ORBIFLY MET'MAP TEAM :

Programmation & Développement : Alexandra Zaïnal
Sur une idée originale de : Baudouin d'Aumeries
Soutien technique & logistique : Manuel Goepfert
Assistance : Marc-Olivier Méhu




SOURCES & CREDITS :

   NOAA